Terminal Aerodrome Forecast
Issued by NWS Binghamton, NY

Home | Current Version | Previous Version | Text Only | Print | Product List | Glossary On
Versions: 1 2 3 4 5 6 7 8 9 10 11 12 13 14 15 16 17 18
727
FTUS41 KBGM 072330
TAFBGM
TAF
KBGM 072330Z 0800/0824 26006KT P6SM BKN140
     FM081600 26010KT P6SM OVC040
     FM081800 26011KT P6SM -SHSN BKN025=

USA.gov is the U.S. government's official web portal to all federal, state and local government web resources and services.